sensor_id;sensor_type;location;lat;lon;timestamp;P1;durP1;ratioP1;P2;durP2;ratioP2
9536;SDS011;4807;48.024;11.726;2022-09-13T00:01:52;1.40;;;1.30;;
9536;SDS011;4807;48.024;11.726;2022-09-13T00:05:00;1.60;;;1.50;;
9536;SDS011;4807;48.024;11.726;2022-09-13T00:08:10;1.67;;;1.50;;
9536;SDS011;4807;48.024;11.726;2022-09-13T00:11:20;1.40;;;1.30;;
9536;SDS011;4807;48.024;11.726;2022-09-13T00:14:30;1.30;;;1.20;;
9536;SDS011;4807;48.024;11.726;2022-09-13T00:17:39;1.60;;;1.50;;
9536;SDS011;4807;48.024;11.726;2022-09-13T00:21:02;2.03;;;1.40;;
9536;SDS011;4807;48.024;11.726;2022-09-13T00:24:14;2.50;;;1.27;;
9536;SDS011;4807;48.024;11.726;2022-09-13T00:27:22;2.43;;;1.30;;
9536;SDS011;4807;48.024;11.726;2022-09-13T00:30:31;3.33;;;1.20;;
9536;SDS011;4807;48.024;11.726;2022-09-13T00:33:40;1.60;;;1.30;;
9536;SDS011;4807;48.024;11.726;2022-09-13T00:36:48;1.37;;;1.27;;
9536;SDS011;4807;48.024;11.726;2022-09-13T00:39:58;44.57;;;15.07;;
9536;SDS011;4807;48.024;11.726;2022-09-13T00:43:09;32.43;;;12.37;;
9536;SDS011;4807;48.024;11.726;2022-09-13T00:46:25;9.07;;;4.50;;
9536;SDS011;4807;48.024;11.726;2022-09-13T00:49:42;3.67;;;2.47;;
9536;SDS011;4807;48.024;11.726;2022-09-13T00:52:57;2.50;;;2.30;;
9536;SDS011;4807;48.024;11.726;2022-09-13T00:56:14;1.90;;;1.50;;
9536;SDS011;4807;48.024;11.726;2022-09-13T00:59:31;5.17;;;1.97;;
9536;SDS011;4807;48.024;11.726;2022-09-13T01:02:47;1.90;;;1.70;;
9536;SDS011;4807;48.024;11.726;2022-09-13T01:06:02;2.67;;;1.50;;
9536;SDS011;4807;48.024;11.726;2022-09-13T01:09:16;4.70;;;1.30;;
9536;SDS011;4807;48.024;11.726;2022-09-13T01:12:28;3.70;;;1.63;;
9536;SDS011;4807;48.024;11.726;2022-09-13T01:15:46;2.77;;;1.23;;
9536;SDS011;4807;48.024;11.726;2022-09-13T01:18:54;1.10;;;1.00;;
9536;SDS011;4807;48.024;11.726;2022-09-13T01:30:23;1.20;;;1.10;;
9536;SDS011;4807;48.024;11.726;2022-09-13T01:33:47;1.23;;;1.10;;
9536;SDS011;4807;48.024;11.726;2022-09-13T01:37:15;1.20;;;1.10;;
9536;SDS011;4807;48.024;11.726;2022-09-13T01:40:45;1.10;;;1.07;;
9536;SDS011;4807;48.024;11.726;2022-09-13T01:44:12;3.80;;;1.23;;
9536;SDS011;4807;48.024;11.726;2022-09-13T01:47:35;1.17;;;1.10;;
9536;SDS011;4807;48.024;11.726;2022-09-13T01:50:58;1.37;;;1.00;;
9536;SDS011;4807;48.024;11.726;2022-09-13T01:54:14;1.23;;;1.13;;
9536;SDS011;4807;48.024;11.726;2022-09-13T01:57:29;1.13;;;1.10;;
9536;SDS011;4807;48.024;11.726;2022-09-13T02:00:43;2.30;;;1.00;;
9536;SDS011;4807;48.024;11.726;2022-09-13T02:04:03;1.13;;;1.07;;
9536;SDS011;4807;48.024;11.726;2022-09-13T02:07:18;1.40;;;1.30;;
9536;SDS011;4807;48.024;11.726;2022-09-13T02:10:32;2.30;;;1.00;;
9536;SDS011;4807;48.024;11.726;2022-09-13T02:13:47;2.30;;;1.10;;
9536;SDS011;4807;48.024;11.726;2022-09-13T02:17:04;1.30;;;1.10;;
9536;SDS011;4807;48.024;11.726;2022-09-13T02:20:20;0.90;;;0.90;;
9536;SDS011;4807;48.024;11.726;2022-09-13T02:23:35;1.43;;;1.03;;
9536;SDS011;4807;48.024;11.726;2022-09-13T02:26:49;0.90;;;0.90;;
9536;SDS011;4807;48.024;11.726;2022-09-13T02:30:03;1.30;;;1.00;;
9536;SDS011;4807;48.024;11.726;2022-09-13T02:33:15;0.90;;;0.90;;
9536;SDS011;4807;48.024;11.726;2022-09-13T02:36:33;1.00;;;1.00;;
9536;SDS011;4807;48.024;11.726;2022-09-13T02:39:48;1.20;;;0.80;;
9536;SDS011;4807;48.024;11.726;2022-09-13T02:43:04;0.83;;;0.80;;
9536;SDS011;4807;48.024;11.726;2022-09-13T02:46:20;1.17;;;0.80;;
9536;SDS011;4807;48.024;11.726;2022-09-13T02:49:47;1.30;;;1.10;;
9536;SDS011;4807;48.024;11.726;2022-09-13T02:53:08;0.93;;;0.93;;
9536;SDS011;4807;48.024;11.726;2022-09-13T02:56:28;1.10;;;1.00;;
9536;SDS011;4807;48.024;11.726;2022-09-13T02:59:47;1.90;;;0.90;;
9536;SDS011;4807;48.024;11.726;2022-09-13T03:02:56;2.13;;;0.97;;
9536;SDS011;4807;48.024;11.726;2022-09-13T03:06:09;1.00;;;0.90;;
9536;SDS011;4807;48.024;11.726;2022-09-13T03:09:19;1.00;;;1.00;;
9536;SDS011;4807;48.024;11.726;2022-09-13T03:12:32;0.97;;;0.97;;
9536;SDS011;4807;48.024;11.726;2022-09-13T03:15:59;1.27;;;0.90;;
9536;SDS011;4807;48.024;11.726;2022-09-13T03:19:29;1.00;;;1.00;;
9536;SDS011;4807;48.024;11.726;2022-09-13T03:22:57;1.10;;;0.80;;
9536;SDS011;4807;48.024;11.726;2022-09-13T03:26:38;1.00;;;1.00;;
9536;SDS011;4807;48.024;11.726;2022-09-13T03:30:01;1.00;;;1.00;;
9536;SDS011;4807;48.024;11.726;2022-09-13T03:33:14;1.07;;;1.00;;
9536;SDS011;4807;48.024;11.726;2022-09-13T03:36:33;1.17;;;0.97;;
9536;SDS011;4807;48.024;11.726;2022-09-13T03:39:49;1.50;;;1.00;;
9536;SDS011;4807;48.024;11.726;2022-09-13T03:43:09;0.83;;;0.83;;
9536;SDS011;4807;48.024;11.726;2022-09-13T03:46:23;1.03;;;0.80;;
9536;SDS011;4807;48.024;11.726;2022-09-13T03:49:37;1.60;;;0.87;;
9536;SDS011;4807;48.024;11.726;2022-09-13T03:52:47;2.00;;;1.03;;
9536;SDS011;4807;48.024;11.726;2022-09-13T03:56:10;1.80;;;1.03;;
9536;SDS011;4807;48.024;11.726;2022-09-13T03:59:21;0.93;;;0.93;;
9536;SDS011;4807;48.024;11.726;2022-09-13T04:02:29;1.07;;;0.97;;
9536;SDS011;4807;48.024;11.726;2022-09-13T04:05:38;0.83;;;0.70;;
9536;SDS011;4807;48.024;11.726;2022-09-13T04:08:46;0.80;;;0.80;;
9536;SDS011;4807;48.024;11.726;2022-09-13T04:11:55;2.07;;;0.73;;
9536;SDS011;4807;48.024;11.726;2022-09-13T04:15:07;1.43;;;0.90;;
9536;SDS011;4807;48.024;11.726;2022-09-13T04:18:17;1.50;;;1.07;;
9536;SDS011;4807;48.024;11.726;2022-09-13T04:21:25;1.23;;;1.13;;
9536;SDS011;4807;48.024;11.726;2022-09-13T04:24:33;1.80;;;1.10;;
9536;SDS011;4807;48.024;11.726;2022-09-13T04:27:45;3.90;;;0.97;;
9536;SDS011;4807;48.024;11.726;2022-09-13T04:30:55;1.00;;;1.00;;
9536;SDS011;4807;48.024;11.726;2022-09-13T04:34:06;0.97;;;0.97;;
9536;SDS011;4807;48.024;11.726;2022-09-13T04:37:15;1.90;;;1.17;;
9536;SDS011;4807;48.024;11.726;2022-09-13T04:40:24;5.67;;;1.50;;
9536;SDS011;4807;48.024;11.726;2022-09-13T04:43:32;1.33;;;1.10;;
9536;SDS011;4807;48.024;11.726;2022-09-13T04:46:42;0.83;;;0.83;;
9536;SDS011;4807;48.024;11.726;2022-09-13T04:49:54;1.13;;;1.03;;
9536;SDS011;4807;48.024;11.726;2022-09-13T04:53:03;1.07;;;0.83;;
9536;SDS011;4807;48.024;11.726;2022-09-13T04:56:12;1.03;;;1.00;;
9536;SDS011;4807;48.024;11.726;2022-09-13T04:59:23;2.30;;;1.00;;
9536;SDS011;4807;48.024;11.726;2022-09-13T05:02:33;0.80;;;0.80;;
9536;SDS011;4807;48.024;11.726;2022-09-13T05:05:41;0.90;;;0.90;;
9536;SDS011;4807;48.024;11.726;2022-09-13T05:08:53;1.13;;;0.90;;
9536;SDS011;4807;48.024;11.726;2022-09-13T05:12:02;1.50;;;0.77;;
9536;SDS011;4807;48.024;11.726;2022-09-13T05:15:11;1.23;;;0.87;;
9536;SDS011;4807;48.024;11.726;2022-09-13T05:18:21;1.80;;;1.00;;
9536;SDS011;4807;48.024;11.726;2022-09-13T05:21:30;0.87;;;0.87;;
9536;SDS011;4807;48.024;11.726;2022-09-13T05:24:39;1.80;;;0.90;;
9536;SDS011;4807;48.024;11.726;2022-09-13T05:27:47;2.30;;;0.90;;
9536;SDS011;4807;48.024;11.726;2022-09-13T05:30:55;1.80;;;1.30;;
9536;SDS011;4807;48.024;11.726;2022-09-13T05:34:08;0.93;;;0.93;;
9536;SDS011;4807;48.024;11.726;2022-09-13T05:37:19;3.43;;;1.67;;
9536;SDS011;4807;48.024;11.726;2022-09-13T05:40:27;1.07;;;1.00;;
9536;SDS011;4807;48.024;11.726;2022-09-13T05:43:38;1.50;;;1.40;;
9536;SDS011;4807;48.024;11.726;2022-09-13T05:46:46;1.30;;;1.30;;
9536;SDS011;4807;48.024;11.726;2022-09-13T05:49:56;1.67;;;1.60;;
9536;SDS011;4807;48.024;11.726;2022-09-13T05:53:15;4.03;;;2.07;;
9536;SDS011;4807;48.024;11.726;2022-09-13T05:56:24;1.93;;;1.63;;
9536;SDS011;4807;48.024;11.726;2022-09-13T05:59:35;1.63;;;1.53;;
9536;SDS011;4807;48.024;11.726;2022-09-13T06:02:43;1.30;;;1.13;;
9536;SDS011;4807;48.024;11.726;2022-09-13T06:05:54;1.70;;;0.90;;
9536;SDS011;4807;48.024;11.726;2022-09-13T06:09:05;1.77;;;1.00;;
9536;SDS011;4807;48.024;11.726;2022-09-13T06:12:17;0.97;;;0.70;;
9536;SDS011;4807;48.024;11.726;2022-09-13T06:15:26;1.10;;;0.97;;
9536;SDS011;4807;48.024;11.726;2022-09-13T06:18:35;1.90;;;1.00;;
9536;SDS011;4807;48.024;11.726;2022-09-13T06:21:50;1.60;;;0.90;;
9536;SDS011;4807;48.024;11.726;2022-09-13T06:24:58;0.63;;;0.53;;
9536;SDS011;4807;48.024;11.726;2022-09-13T06:28:07;0.57;;;0.47;;
9536;SDS011;4807;48.024;11.726;2022-09-13T06:31:17;1.07;;;0.50;;
9536;SDS011;4807;48.024;11.726;2022-09-13T06:34:28;0.57;;;0.50;;
9536;SDS011;4807;48.024;11.726;2022-09-13T06:37:42;0.50;;;0.50;;
9536;SDS011;4807;48.024;11.726;2022-09-13T06:40:58;1.53;;;0.50;;
9536;SDS011;4807;48.024;11.726;2022-09-13T06:44:08;0.87;;;0.60;;
9536;SDS011;4807;48.024;11.726;2022-09-13T06:47:16;0.70;;;0.60;;
9536;SDS011;4807;48.024;11.726;2022-09-13T06:50:25;2.00;;;0.37;;
9536;SDS011;4807;48.024;11.726;2022-09-13T06:53:35;2.40;;;0.90;;
9536;SDS011;4807;48.024;11.726;2022-09-13T06:56:44;0.97;;;0.33;;
9536;SDS011;4807;48.024;11.726;2022-09-13T06:59:52;1.17;;;0.50;;
9536;SDS011;4807;48.024;11.726;2022-09-13T07:03:01;0.93;;;0.40;;
9536;SDS011;4807;48.024;11.726;2022-09-13T07:06:10;1.17;;;0.30;;
9536;SDS011;4807;48.024;11.726;2022-09-13T07:09:28;1.13;;;0.30;;
9536;SDS011;4807;48.024;11.726;2022-09-13T07:12:38;1.90;;;0.43;;
9536;SDS011;4807;48.024;11.726;2022-09-13T07:15:48;0.93;;;0.50;;
9536;SDS011;4807;48.024;11.726;2022-09-13T07:19:01;0.43;;;0.30;;
9536;SDS011;4807;48.024;11.726;2022-09-13T07:22:12;0.87;;;0.30;;
9536;SDS011;4807;48.024;11.726;2022-09-13T07:25:24;0.47;;;0.30;;
9536;SDS011;4807;48.024;11.726;2022-09-13T07:28:41;0.83;;;0.30;;
9536;SDS011;4807;48.024;11.726;2022-09-13T07:31:52;0.40;;;0.30;;
9536;SDS011;4807;48.024;11.726;2022-09-13T07:35:02;0.33;;;0.20;;
9536;SDS011;4807;48.024;11.726;2022-09-13T07:38:12;0.43;;;0.43;;
9536;SDS011;4807;48.024;11.726;2022-09-13T07:41:22;0.53;;;0.47;;
9536;SDS011;4807;48.024;11.726;2022-09-13T07:44:33;0.67;;;0.30;;
9536;SDS011;4807;48.024;11.726;2022-09-13T07:47:41;0.60;;;0.33;;
9536;SDS011;4807;48.024;11.726;2022-09-13T07:50:55;0.40;;;0.30;;
9536;SDS011;4807;48.024;11.726;2022-09-13T07:54:09;0.33;;;0.33;;
9536;SDS011;4807;48.024;11.726;2022-09-13T07:57:21;0.40;;;0.40;;
9536;SDS011;4807;48.024;11.726;2022-09-13T08:00:30;0.40;;;0.40;;
9536;SDS011;4807;48.024;11.726;2022-09-13T08:03:38;1.80;;;0.50;;
9536;SDS011;4807;48.024;11.726;2022-09-13T08:06:48;0.97;;;0.40;;
9536;SDS011;4807;48.024;11.726;2022-09-13T08:09:57;0.70;;;0.50;;
9536;SDS011;4807;48.024;11.726;2022-09-13T08:13:16;0.40;;;0.40;;
9536;SDS011;4807;48.024;11.726;2022-09-13T08:16:33;0.43;;;0.43;;
9536;SDS011;4807;48.024;11.726;2022-09-13T08:19:45;2.00;;;0.50;;
9536;SDS011;4807;48.024;11.726;2022-09-13T08:22:53;0.30;;;0.30;;
9536;SDS011;4807;48.024;11.726;2022-09-13T08:26:11;0.43;;;0.43;;
9536;SDS011;4807;48.024;11.726;2022-09-13T08:29:44;0.20;;;0.20;;
9536;SDS011;4807;48.024;11.726;2022-09-13T08:33:41;0.37;;;0.30;;
9536;SDS011;4807;48.024;11.726;2022-09-13T08:36:57;0.50;;;0.50;;
9536;SDS011;4807;48.024;11.726;2022-09-13T08:40:07;0.73;;;0.40;;
9536;SDS011;4807;48.024;11.726;2022-09-13T08:43:35;0.30;;;0.30;;
9536;SDS011;4807;48.024;11.726;2022-09-13T08:47:01;0.30;;;0.30;;
9536;SDS011;4807;48.024;11.726;2022-09-13T08:50:37;0.30;;;0.30;;
9536;SDS011;4807;48.024;11.726;2022-09-13T08:53:51;0.40;;;0.40;;
9536;SDS011;4807;48.024;11.726;2022-09-13T08:57:04;0.73;;;0.30;;
9536;SDS011;4807;48.024;11.726;2022-09-13T09:00:27;2.17;;;0.40;;
9536;SDS011;4807;48.024;11.726;2022-09-13T09:03:52;0.43;;;0.40;;
9536;SDS011;4807;48.024;11.726;2022-09-13T09:07:17;0.40;;;0.30;;
9536;SDS011;4807;48.024;11.726;2022-09-13T09:10:31;1.30;;;0.40;;
9536;SDS011;4807;48.024;11.726;2022-09-13T09:13:48;1.70;;;0.50;;
9536;SDS011;4807;48.024;11.726;2022-09-13T09:17:04;0.67;;;0.33;;
9536;SDS011;4807;48.024;11.726;2022-09-13T09:20:29;1.90;;;0.30;;
9536;SDS011;4807;48.024;11.726;2022-09-13T09:23:45;0.20;;;0.20;;
9536;SDS011;4807;48.024;11.726;2022-09-13T09:26:57;1.77;;;0.40;;
9536;SDS011;4807;48.024;11.726;2022-09-13T09:30:17;1.17;;;0.30;;
9536;SDS011;4807;48.024;11.726;2022-09-13T09:33:32;1.47;;;0.37;;
9536;SDS011;4807;48.024;11.726;2022-09-13T09:37:06;0.57;;;0.30;;
9536;SDS011;4807;48.024;11.726;2022-09-13T09:40:26;0.40;;;0.30;;
9536;SDS011;4807;48.024;11.726;2022-09-13T09:43:38;0.53;;;0.40;;
9536;SDS011;4807;48.024;11.726;2022-09-13T09:46:54;1.53;;;0.30;;
9536;SDS011;4807;48.024;11.726;2022-09-13T09:50:09;0.40;;;0.40;;
9536;SDS011;4807;48.024;11.726;2022-09-13T09:53:25;2.07;;;0.40;;
9536;SDS011;4807;48.024;11.726;2022-09-13T09:56:51;2.20;;;0.40;;
9536;SDS011;4807;48.024;11.726;2022-09-13T10:00:08;0.77;;;0.33;;
9536;SDS011;4807;48.024;11.726;2022-09-13T10:03:20;1.13;;;0.40;;
9536;SDS011;4807;48.024;11.726;2022-09-13T10:06:34;0.40;;;0.40;;
9536;SDS011;4807;48.024;11.726;2022-09-13T10:09:55;0.30;;;0.30;;
9536;SDS011;4807;48.024;11.726;2022-09-13T10:13:27;3.13;;;0.30;;
9536;SDS011;4807;48.024;11.726;2022-09-13T10:16:40;0.53;;;0.40;;
9536;SDS011;4807;48.024;11.726;2022-09-13T10:19:53;1.63;;;0.40;;
9536;SDS011;4807;48.024;11.726;2022-09-13T10:23:09;1.20;;;0.40;;
9536;SDS011;4807;48.024;11.726;2022-09-13T10:26:27;0.73;;;0.40;;
9536;SDS011;4807;48.024;11.726;2022-09-13T10:29:45;0.40;;;0.40;;
9536;SDS011;4807;48.024;11.726;2022-09-13T10:33:00;0.40;;;0.40;;
9536;SDS011;4807;48.024;11.726;2022-09-13T10:36:13;0.97;;;0.50;;
9536;SDS011;4807;48.024;11.726;2022-09-13T10:39:54;0.40;;;0.40;;
9536;SDS011;4807;48.024;11.726;2022-09-13T10:43:22;0.77;;;0.30;;
9536;SDS011;4807;48.024;11.726;2022-09-13T10:46:36;1.40;;;0.43;;
9536;SDS011;4807;48.024;11.726;2022-09-13T10:49:51;1.90;;;0.70;;
9536;SDS011;4807;48.024;11.726;2022-09-13T10:53:23;1.60;;;0.40;;
9536;SDS011;4807;48.024;11.726;2022-09-13T10:56:45;0.30;;;0.30;;
9536;SDS011;4807;48.024;11.726;2022-09-13T10:59:57;0.37;;;0.30;;
9536;SDS011;4807;48.024;11.726;2022-09-13T11:03:10;0.97;;;0.30;;
9536;SDS011;4807;48.024;11.726;2022-09-13T11:06:40;0.30;;;0.30;;
9536;SDS011;4807;48.024;11.726;2022-09-13T11:09:59;3.27;;;0.50;;
9536;SDS011;4807;48.024;11.726;2022-09-13T11:13:27;0.90;;;0.40;;
9536;SDS011;4807;48.024;11.726;2022-09-13T11:16:58;0.57;;;0.57;;
9536;SDS011;4807;48.024;11.726;2022-09-13T11:20:22;0.30;;;0.30;;
9536;SDS011;4807;48.024;11.726;2022-09-13T11:23:51;0.57;;;0.40;;
9536;SDS011;4807;48.024;11.726;2022-09-13T11:27:22;0.30;;;0.23;;
9536;SDS011;4807;48.024;11.726;2022-09-13T11:30:45;0.40;;;0.40;;
9536;SDS011;4807;48.024;11.726;2022-09-13T11:34:23;0.63;;;0.20;;
9536;SDS011;4807;48.024;11.726;2022-09-13T11:37:53;0.50;;;0.30;;
9536;SDS011;4807;48.024;11.726;2022-09-13T11:41:15;0.20;;;0.20;;
9536;SDS011;4807;48.024;11.726;2022-09-13T11:44:55;0.43;;;0.30;;
9536;SDS011;4807;48.024;11.726;2022-09-13T11:48:34;0.30;;;0.27;;
9536;SDS011;4807;48.024;11.726;2022-09-13T11:52:20;0.30;;;0.30;;
9536;SDS011;4807;48.024;11.726;2022-09-13T11:55:50;0.47;;;0.20;;
9536;SDS011;4807;48.024;11.726;2022-09-13T11:59:14;1.47;;;0.30;;
9536;SDS011;4807;48.024;11.726;2022-09-13T12:02:35;1.50;;;0.30;;
9536;SDS011;4807;48.024;11.726;2022-09-13T12:05:54;0.90;;;0.30;;
9536;SDS011;4807;48.024;11.726;2022-09-13T12:09:11;1.23;;;0.20;;
9536;SDS011;4807;48.024;11.726;2022-09-13T12:12:31;1.03;;;0.30;;
9536;SDS011;4807;48.024;11.726;2022-09-13T12:15:43;1.03;;;0.20;;
9536;SDS011;4807;48.024;11.726;2022-09-13T12:18:58;0.40;;;0.30;;
9536;SDS011;4807;48.024;11.726;2022-09-13T12:22:11;2.07;;;0.23;;
9536;SDS011;4807;48.024;11.726;2022-09-13T12:25:23;0.50;;;0.20;;
9536;SDS011;4807;48.024;11.726;2022-09-13T12:28:41;2.13;;;0.47;;
9536;SDS011;4807;48.024;11.726;2022-09-13T12:32:01;0.20;;;0.13;;
9536;SDS011;4807;48.024;11.726;2022-09-13T12:35:18;1.23;;;0.40;;
9536;SDS011;4807;48.024;11.726;2022-09-13T12:42:46;2.60;;;0.30;;
9536;SDS011;4807;48.024;11.726;2022-09-13T12:46:38;1.07;;;0.20;;
9536;SDS011;4807;48.024;11.726;2022-09-13T12:50:43;2.30;;;0.10;;
9536;SDS011;4807;48.024;11.726;2022-09-13T12:57:55;0.30;;;0.30;;
9536;SDS011;4807;48.024;11.726;2022-09-13T13:01:22;0.20;;;0.20;;
9536;SDS011;4807;48.024;11.726;2022-09-13T13:04:36;0.67;;;0.30;;
9536;SDS011;4807;48.024;11.726;2022-09-13T13:07:51;0.33;;;0.30;;
9536;SDS011;4807;48.024;11.726;2022-09-13T13:11:06;0.30;;;0.30;;
9536;SDS011;4807;48.024;11.726;2022-09-13T13:14:26;0.20;;;0.20;;
9536;SDS011;4807;48.024;11.726;2022-09-13T13:17:53;2.07;;;0.30;;
9536;SDS011;4807;48.024;11.726;2022-09-13T13:21:06;0.27;;;0.20;;
9536;SDS011;4807;48.024;11.726;2022-09-13T13:24:52;0.50;;;0.30;;
9536;SDS011;4807;48.024;11.726;2022-09-13T13:28:02;0.23;;;0.23;;
9536;SDS011;4807;48.024;11.726;2022-09-13T13:31:41;0.20;;;0.20;;
9536;SDS011;4807;48.024;11.726;2022-09-13T13:34:52;3.20;;;1.80;;
9536;SDS011;4807;48.024;11.726;2022-09-13T13:41:48;0.30;;;0.30;;
9536;SDS011;4807;48.024;11.726;2022-09-13T13:48:36;0.20;;;0.20;;
9536;SDS011;4807;48.024;11.726;2022-09-13T13:51:51;1.37;;;0.20;;
9536;SDS011;4807;48.024;11.726;2022-09-13T13:55:46;0.20;;;0.20;;
9536;SDS011;4807;48.024;11.726;2022-09-13T13:59:16;0.23;;;0.23;;
9536;SDS011;4807;48.024;11.726;2022-09-13T14:02:33;0.23;;;0.20;;
9536;SDS011;4807;48.024;11.726;2022-09-13T14:05:56;0.83;;;0.30;;
9536;SDS011;4807;48.024;11.726;2022-09-13T14:09:25;0.20;;;0.20;;
9536;SDS011;4807;48.024;11.726;2022-09-13T14:12:48;0.20;;;0.20;;
9536;SDS011;4807;48.024;11.726;2022-09-13T14:16:24;0.30;;;0.27;;
9536;SDS011;4807;48.024;11.726;2022-09-13T14:19:57;0.40;;;0.37;;
9536;SDS011;4807;48.024;11.726;2022-09-13T14:23:16;0.20;;;0.20;;
9536;SDS011;4807;48.024;11.726;2022-09-13T14:26:25;1.83;;;0.37;;
9536;SDS011;4807;48.024;11.726;2022-09-13T14:29:33;0.87;;;0.27;;
9536;SDS011;4807;48.024;11.726;2022-09-13T14:32:43;0.77;;;0.20;;
9536;SDS011;4807;48.024;11.726;2022-09-13T14:35:58;2.00;;;0.20;;
9536;SDS011;4807;48.024;11.726;2022-09-13T14:39:11;2.40;;;0.30;;
9536;SDS011;4807;48.024;11.726;2022-09-13T14:42:20;0.83;;;0.30;;
9536;SDS011;4807;48.024;11.726;2022-09-13T14:45:30;0.40;;;0.17;;
9536;SDS011;4807;48.024;11.726;2022-09-13T14:48:45;0.17;;;0.17;;
9536;SDS011;4807;48.024;11.726;2022-09-13T14:51:59;3.37;;;0.40;;
9536;SDS011;4807;48.024;11.726;2022-09-13T14:55:14;0.20;;;0.20;;
9536;SDS011;4807;48.024;11.726;2022-09-13T14:58:31;0.40;;;0.20;;
9536;SDS011;4807;48.024;11.726;2022-09-13T15:01:51;1.87;;;0.30;;
9536;SDS011;4807;48.024;11.726;2022-09-13T15:05:11;0.90;;;0.20;;
9536;SDS011;4807;48.024;11.726;2022-09-13T15:08:40;0.77;;;0.27;;
9536;SDS011;4807;48.024;11.726;2022-09-13T15:11:57;0.30;;;0.27;;
9536;SDS011;4807;48.024;11.726;2022-09-13T15:15:24;0.30;;;0.20;;
9536;SDS011;4807;48.024;11.726;2022-09-13T15:18:42;2.57;;;0.33;;
9536;SDS011;4807;48.024;11.726;2022-09-13T15:22:03;0.20;;;0.20;;
9536;SDS011;4807;48.024;11.726;2022-09-13T15:25:21;1.50;;;0.40;;
9536;SDS011;4807;48.024;11.726;2022-09-13T15:28:46;0.30;;;0.30;;
9536;SDS011;4807;48.024;11.726;2022-09-13T15:31:59;0.20;;;0.20;;
9536;SDS011;4807;48.024;11.726;2022-09-13T15:35:14;2.87;;;0.27;;
9536;SDS011;4807;48.024;11.726;2022-09-13T15:38:30;0.30;;;0.30;;
9536;SDS011;4807;48.024;11.726;2022-09-13T15:41:49;0.47;;;0.30;;
9536;SDS011;4807;48.024;11.726;2022-09-13T15:45:08;0.70;;;0.23;;
9536;SDS011;4807;48.024;11.726;2022-09-13T15:48:23;0.30;;;0.30;;
9536;SDS011;4807;48.024;11.726;2022-09-13T15:51:38;0.20;;;0.20;;
9536;SDS011;4807;48.024;11.726;2022-09-13T15:54:58;0.40;;;0.33;;
9536;SDS011;4807;48.024;11.726;2022-09-13T15:58:10;0.40;;;0.40;;
9536;SDS011;4807;48.024;11.726;2022-09-13T16:01:22;0.73;;;0.60;;
9536;SDS011;4807;48.024;11.726;2022-09-13T16:04:36;1.13;;;0.53;;
9536;SDS011;4807;48.024;11.726;2022-09-13T16:07:48;0.57;;;0.40;;
9536;SDS011;4807;48.024;11.726;2022-09-13T16:10:58;0.80;;;0.40;;
9536;SDS011;4807;48.024;11.726;2022-09-13T16:14:06;2.23;;;0.57;;
9536;SDS011;4807;48.024;11.726;2022-09-13T16:17:20;2.20;;;0.53;;
9536;SDS011;4807;48.024;11.726;2022-09-13T16:20:32;0.70;;;0.43;;
9536;SDS011;4807;48.024;11.726;2022-09-13T16:23:43;1.40;;;0.37;;
9536;SDS011;4807;48.024;11.726;2022-09-13T16:26:51;0.67;;;0.60;;
9536;SDS011;4807;48.024;11.726;2022-09-13T16:30:02;0.50;;;0.50;;
9536;SDS011;4807;48.024;11.726;2022-09-13T16:33:13;0.50;;;0.50;;
9536;SDS011;4807;48.024;11.726;2022-09-13T16:36:23;1.70;;;0.50;;
9536;SDS011;4807;48.024;11.726;2022-09-13T16:39:34;0.70;;;0.50;;
9536;SDS011;4807;48.024;11.726;2022-09-13T16:42:42;0.77;;;0.50;;
9536;SDS011;4807;48.024;11.726;2022-09-13T16:45:50;3.23;;;0.50;;
9536;SDS011;4807;48.024;11.726;2022-09-13T16:49:00;1.50;;;0.40;;
9536;SDS011;4807;48.024;11.726;2022-09-13T16:52:10;0.60;;;0.50;;
9536;SDS011;4807;48.024;11.726;2022-09-13T16:55:18;2.43;;;0.70;;
9536;SDS011;4807;48.024;11.726;2022-09-13T16:58:34;2.20;;;0.70;;
9536;SDS011;4807;48.024;11.726;2022-09-13T17:01:44;2.83;;;0.70;;
9536;SDS011;4807;48.024;11.726;2022-09-13T17:04:54;2.10;;;0.70;;
9536;SDS011;4807;48.024;11.726;2022-09-13T17:08:02;0.90;;;0.73;;
9536;SDS011;4807;48.024;11.726;2022-09-13T17:11:12;2.27;;;0.97;;
9536;SDS011;4807;48.024;11.726;2022-09-13T17:14:23;4.53;;;0.70;;
9536;SDS011;4807;48.024;11.726;2022-09-13T17:17:32;0.50;;;0.50;;
9536;SDS011;4807;48.024;11.726;2022-09-13T17:20:43;0.70;;;0.60;;
9536;SDS011;4807;48.024;11.726;2022-09-13T17:23:53;3.27;;;0.70;;
9536;SDS011;4807;48.024;11.726;2022-09-13T17:27:02;2.53;;;0.80;;
9536;SDS011;4807;48.024;11.726;2022-09-13T17:30:13;3.97;;;0.80;;
9536;SDS011;4807;48.024;11.726;2022-09-13T17:33:22;1.03;;;0.60;;
9536;SDS011;4807;48.024;11.726;2022-09-13T17:36:32;3.93;;;0.80;;
9536;SDS011;4807;48.024;11.726;2022-09-13T17:39:46;2.70;;;0.87;;
9536;SDS011;4807;48.024;11.726;2022-09-13T17:42:54;0.80;;;0.80;;
9536;SDS011;4807;48.024;11.726;2022-09-13T17:46:04;0.77;;;0.60;;
9536;SDS011;4807;48.024;11.726;2022-09-13T17:49:21;1.80;;;0.90;;
9536;SDS011;4807;48.024;11.726;2022-09-13T17:52:33;3.23;;;1.00;;
9536;SDS011;4807;48.024;11.726;2022-09-13T17:55:45;3.00;;;1.57;;
9536;SDS011;4807;48.024;11.726;2022-09-13T17:59:03;3.40;;;1.60;;
9536;SDS011;4807;48.024;11.726;2022-09-13T18:02:22;2.10;;;1.90;;
9536;SDS011;4807;48.024;11.726;2022-09-13T18:05:36;3.33;;;1.63;;
9536;SDS011;4807;48.024;11.726;2022-09-13T18:08:50;1.73;;;1.60;;
9536;SDS011;4807;48.024;11.726;2022-09-13T18:12:01;4.30;;;1.30;;
9536;SDS011;4807;48.024;11.726;2022-09-13T18:15:17;1.40;;;1.30;;
9536;SDS011;4807;48.024;11.726;2022-09-13T18:18:28;1.47;;;1.10;;
9536;SDS011;4807;48.024;11.726;2022-09-13T18:21:39;3.17;;;0.97;;
9536;SDS011;4807;48.024;11.726;2022-09-13T18:24:49;2.47;;;1.50;;
9536;SDS011;4807;48.024;11.726;2022-09-13T18:28:06;2.20;;;1.57;;
9536;SDS011;4807;48.024;11.726;2022-09-13T18:31:19;2.87;;;1.40;;
9536;SDS011;4807;48.024;11.726;2022-09-13T18:34:27;3.20;;;2.07;;
9536;SDS011;4807;48.024;11.726;2022-09-13T18:37:36;1.90;;;1.80;;
9536;SDS011;4807;48.024;11.726;2022-09-13T18:40:46;4.10;;;2.17;;
9536;SDS011;4807;48.024;11.726;2022-09-13T18:44:09;2.80;;;1.93;;
9536;SDS011;4807;48.024;11.726;2022-09-13T18:47:29;3.63;;;2.03;;
9536;SDS011;4807;48.024;11.726;2022-09-13T18:50:40;2.57;;;1.53;;
9536;SDS011;4807;48.024;11.726;2022-09-13T18:53:50;1.70;;;1.60;;
9536;SDS011;4807;48.024;11.726;2022-09-13T18:57:00;4.00;;;1.80;;
9536;SDS011;4807;48.024;11.726;2022-09-13T19:00:09;2.10;;;1.77;;
9536;SDS011;4807;48.024;11.726;2022-09-13T19:03:21;3.60;;;1.87;;
9536;SDS011;4807;48.024;11.726;2022-09-13T19:06:34;2.03;;;1.83;;
9536;SDS011;4807;48.024;11.726;2022-09-13T19:09:45;3.07;;;1.73;;
9536;SDS011;4807;48.024;11.726;2022-09-13T19:12:57;3.83;;;2.87;;
9536;SDS011;4807;48.024;11.726;2022-09-13T19:16:08;5.80;;;4.17;;
9536;SDS011;4807;48.024;11.726;2022-09-13T19:19:21;8.73;;;3.93;;
9536;SDS011;4807;48.024;11.726;2022-09-13T19:22:30;7.33;;;3.53;;
9536;SDS011;4807;48.024;11.726;2022-09-13T19:25:39;6.70;;;2.80;;
9536;SDS011;4807;48.024;11.726;2022-09-13T19:28:52;6.50;;;2.23;;
9536;SDS011;4807;48.024;11.726;2022-09-13T19:32:04;2.27;;;1.50;;
9536;SDS011;4807;48.024;11.726;2022-09-13T19:35:14;5.43;;;1.73;;
9536;SDS011;4807;48.024;11.726;2022-09-13T19:38:23;2.70;;;1.83;;
9536;SDS011;4807;48.024;11.726;2022-09-13T19:41:33;2.47;;;1.90;;
9536;SDS011;4807;48.024;11.726;2022-09-13T19:44:47;1.87;;;1.57;;
9536;SDS011;4807;48.024;11.726;2022-09-13T19:47:58;3.50;;;2.00;;
9536;SDS011;4807;48.024;11.726;2022-09-13T19:51:30;2.03;;;1.77;;
9536;SDS011;4807;48.024;11.726;2022-09-13T19:54:43;2.73;;;1.70;;
9536;SDS011;4807;48.024;11.726;2022-09-13T19:57:54;3.37;;;2.03;;
9536;SDS011;4807;48.024;11.726;2022-09-13T20:01:06;1.60;;;1.50;;
9536;SDS011;4807;48.024;11.726;2022-09-13T20:04:18;1.40;;;1.30;;
9536;SDS011;4807;48.024;11.726;2022-09-13T20:07:30;2.67;;;2.40;;
9536;SDS011;4807;48.024;11.726;2022-09-13T20:10:38;3.23;;;2.93;;
9536;SDS011;4807;48.024;11.726;2022-09-13T20:13:49;6.17;;;4.10;;
9536;SDS011;4807;48.024;11.726;2022-09-13T20:16:59;4.00;;;3.57;;
9536;SDS011;4807;48.024;11.726;2022-09-13T20:20:12;3.87;;;3.43;;